Bluff Point, New York
Current Conditions -  °F | °C
As of 5:30 AM on Saturday 01 Nov 2014 (Local Time) from KPEO Reporting Station
Light Rain Light Rain  
Wind Chill: 40°   Ceiling: 2200
Heat Index: 40°   Visibility: 10mi
Dew Point: 37°   Wind: 3mph
Humidity: 89%   Direction: NA
Pressure: 29.96"   Gusts: NA
Location:  42.58°N, 77.128°W
Report Text: KPEO 010930Z AUTO VRB03KT 10SM -RA BKN022 OVC044 04/03 A2996 RMK AO2 P0000 T00440028
Loading
Personal Weather Stations






























Interactive Weather Map
Tropical Storm Tracking
New forecast layout! Learn more

10-Day Weather Forecast

Advertisements
Track Severe Weather on mobile